sensor_id;sensor_type;location;lat;lon;timestamp;P1;durP1;ratioP1;P2;durP2;ratioP2
7444;SDS011;3764;48.126;11.594;2024-01-27T00:00:32;2.33;;;2.05;;
7444;SDS011;3764;48.126;11.594;2024-01-27T00:02:59;5.38;;;1.95;;
7444;SDS011;3764;48.126;11.594;2024-01-27T00:05:27;7.72;;;2.50;;
7444;SDS011;3764;48.126;11.594;2024-01-27T00:07:54;7.20;;;3.80;;
7444;SDS011;3764;48.126;11.594;2024-01-27T00:10:22;6.88;;;3.25;;
7444;SDS011;3764;48.126;11.594;2024-01-27T00:12:50;12.93;;;6.97;;
7444;SDS011;3764;48.126;11.594;2024-01-27T00:15:17;12.80;;;6.90;;
7444;SDS011;3764;48.126;11.594;2024-01-27T00:17:45;14.35;;;8.18;;
7444;SDS011;3764;48.126;11.594;2024-01-27T00:20:12;14.73;;;6.20;;
7444;SDS011;3764;48.126;11.594;2024-01-27T00:22:39;14.07;;;7.68;;
7444;SDS011;3764;48.126;11.594;2024-01-27T00:25:06;9.50;;;5.65;;
7444;SDS011;3764;48.126;11.594;2024-01-27T00:27:33;16.92;;;5.95;;
7444;SDS011;3764;48.126;11.594;2024-01-27T00:30:02;12.43;;;6.15;;
7444;SDS011;3764;48.126;11.594;2024-01-27T00:32:30;8.38;;;4.88;;
7444;SDS011;3764;48.126;11.594;2024-01-27T00:34:59;11.57;;;6.05;;
7444;SDS011;3764;48.126;11.594;2024-01-27T00:37:26;8.15;;;4.05;;
7444;SDS011;3764;48.126;11.594;2024-01-27T00:39:53;9.40;;;4.50;;
7444;SDS011;3764;48.126;11.594;2024-01-27T00:42:20;7.30;;;3.78;;
7444;SDS011;3764;48.126;11.594;2024-01-27T00:44:49;7.00;;;4.18;;
7444;SDS011;3764;48.126;11.594;2024-01-27T00:47:17;7.63;;;4.82;;
7444;SDS011;3764;48.126;11.594;2024-01-27T00:49:45;8.60;;;5.07;;
7444;SDS011;3764;48.126;11.594;2024-01-27T00:52:12;11.27;;;6.20;;
7444;SDS011;3764;48.126;11.594;2024-01-27T00:54:39;10.75;;;5.65;;
7444;SDS011;3764;48.126;11.594;2024-01-27T00:57:07;14.77;;;6.55;;
7444;SDS011;3764;48.126;11.594;2024-01-27T00:59:34;14.02;;;5.63;;
7444;SDS011;3764;48.126;11.594;2024-01-27T01:02:01;9.40;;;5.10;;
7444;SDS011;3764;48.126;11.594;2024-01-27T01:04:30;13.98;;;5.53;;
7444;SDS011;3764;48.126;11.594;2024-01-27T01:06:57;13.15;;;5.97;;
7444;SDS011;3764;48.126;11.594;2024-01-27T01:09:24;12.27;;;6.00;;
7444;SDS011;3764;48.126;11.594;2024-01-27T01:11:52;11.55;;;6.55;;
7444;SDS011;3764;48.126;11.594;2024-01-27T01:14:19;21.83;;;9.93;;
7444;SDS011;3764;48.126;11.594;2024-01-27T01:16:47;33.45;;;15.20;;
7444;SDS011;3764;48.126;11.594;2024-01-27T01:19:14;30.27;;;16.38;;
7444;SDS011;3764;48.126;11.594;2024-01-27T01:21:42;30.60;;;18.75;;
7444;SDS011;3764;48.126;11.594;2024-01-27T01:24:10;25.92;;;14.35;;
7444;SDS011;3764;48.126;11.594;2024-01-27T01:26:37;25.27;;;14.80;;
7444;SDS011;3764;48.126;11.594;2024-01-27T01:29:04;22.98;;;13.18;;
7444;SDS011;3764;48.126;11.594;2024-01-27T01:31:31;15.93;;;8.13;;
7444;SDS011;3764;48.126;11.594;2024-01-27T01:33:58;9.15;;;5.30;;
7444;SDS011;3764;48.126;11.594;2024-01-27T01:36:25;10.73;;;3.75;;
7444;SDS011;3764;48.126;11.594;2024-01-27T01:38:54;5.63;;;3.20;;
7444;SDS011;3764;48.126;11.594;2024-01-27T01:41:21;4.07;;;3.40;;
7444;SDS011;3764;48.126;11.594;2024-01-27T01:43:48;3.28;;;2.10;;
7444;SDS011;3764;48.126;11.594;2024-01-27T01:46:16;4.15;;;1.90;;
7444;SDS011;3764;48.126;11.594;2024-01-27T01:48:44;5.93;;;2.35;;
7444;SDS011;3764;48.126;11.594;2024-01-27T01:51:11;4.50;;;2.17;;
7444;SDS011;3764;48.126;11.594;2024-01-27T01:53:39;2.83;;;1.90;;
7444;SDS011;3764;48.126;11.594;2024-01-27T01:56:08;4.03;;;1.95;;
7444;SDS011;3764;48.126;11.594;2024-01-27T01:58:35;4.05;;;1.77;;
7444;SDS011;3764;48.126;11.594;2024-01-27T02:01:03;1.63;;;1.40;;
7444;SDS011;3764;48.126;11.594;2024-01-27T02:03:30;2.97;;;1.75;;
7444;SDS011;3764;48.126;11.594;2024-01-27T02:05:57;3.85;;;2.22;;
7444;SDS011;3764;48.126;11.594;2024-01-27T02:08:25;1.85;;;1.55;;
7444;SDS011;3764;48.126;11.594;2024-01-27T02:10:52;2.80;;;1.80;;
7444;SDS011;3764;48.126;11.594;2024-01-27T02:13:21;4.75;;;1.80;;
7444;SDS011;3764;48.126;11.594;2024-01-27T02:15:49;3.30;;;1.80;;
7444;SDS011;3764;48.126;11.594;2024-01-27T02:18:17;11.93;;;3.75;;
7444;SDS011;3764;48.126;11.594;2024-01-27T02:20:45;3.33;;;1.70;;
7444;SDS011;3764;48.126;11.594;2024-01-27T02:23:12;9.38;;;2.15;;
7444;SDS011;3764;48.126;11.594;2024-01-27T02:25:41;4.70;;;1.92;;
7444;SDS011;3764;48.126;11.594;2024-01-27T02:28:08;3.55;;;1.60;;
7444;SDS011;3764;48.126;11.594;2024-01-27T02:30:35;3.20;;;1.50;;
7444;SDS011;3764;48.126;11.594;2024-01-27T02:33:02;4.35;;;1.70;;
7444;SDS011;3764;48.126;11.594;2024-01-27T02:35:30;5.13;;;1.65;;
7444;SDS011;3764;48.126;11.594;2024-01-27T02:37:58;2.70;;;1.70;;
7444;SDS011;3764;48.126;11.594;2024-01-27T02:40:25;2.92;;;1.80;;
7444;SDS011;3764;48.126;11.594;2024-01-27T02:42:53;2.75;;;1.70;;
7444;SDS011;3764;48.126;11.594;2024-01-27T02:45:20;4.88;;;3.08;;
7444;SDS011;3764;48.126;11.594;2024-01-27T02:47:48;2.42;;;1.65;;
7444;SDS011;3764;48.126;11.594;2024-01-27T02:50:15;3.85;;;2.35;;
7444;SDS011;3764;48.126;11.594;2024-01-27T02:52:42;4.25;;;2.00;;
7444;SDS011;3764;48.126;11.594;2024-01-27T02:55:09;6.47;;;1.52;;
7444;SDS011;3764;48.126;11.594;2024-01-27T02:57:37;5.00;;;2.35;;
7444;SDS011;3764;48.126;11.594;2024-01-27T03:00:06;4.43;;;2.00;;
7444;SDS011;3764;48.126;11.594;2024-01-27T03:02:33;5.38;;;2.13;;
7444;SDS011;3764;48.126;11.594;2024-01-27T03:05:01;2.85;;;1.95;;
7444;SDS011;3764;48.126;11.594;2024-01-27T03:07:28;2.90;;;1.75;;
7444;SDS011;3764;48.126;11.594;2024-01-27T03:09:55;2.22;;;1.73;;
7444;SDS011;3764;48.126;11.594;2024-01-27T03:12:22;4.60;;;1.98;;
7444;SDS011;3764;48.126;11.594;2024-01-27T03:14:50;5.38;;;1.95;;
7444;SDS011;3764;48.126;11.594;2024-01-27T03:17:18;3.55;;;1.52;;
7444;SDS011;3764;48.126;11.594;2024-01-27T03:19:45;5.47;;;1.80;;
7444;SDS011;3764;48.126;11.594;2024-01-27T03:22:13;2.22;;;1.70;;
7444;SDS011;3764;48.126;11.594;2024-01-27T03:24:40;3.65;;;2.10;;
7444;SDS011;3764;48.126;11.594;2024-01-27T03:27:07;4.68;;;2.40;;
7444;SDS011;3764;48.126;11.594;2024-01-27T03:29:35;3.22;;;1.67;;
7444;SDS011;3764;48.126;11.594;2024-01-27T03:32:02;4.28;;;1.88;;
7444;SDS011;3764;48.126;11.594;2024-01-27T03:34:31;3.13;;;1.60;;
7444;SDS011;3764;48.126;11.594;2024-01-27T03:36:58;5.47;;;2.67;;
7444;SDS011;3764;48.126;11.594;2024-01-27T03:39:25;3.55;;;1.90;;
7444;SDS011;3764;48.126;11.594;2024-01-27T03:41:52;4.03;;;1.50;;
7444;SDS011;3764;48.126;11.594;2024-01-27T03:44:19;5.50;;;1.83;;
7444;SDS011;3764;48.126;11.594;2024-01-27T03:46:46;2.33;;;1.77;;
7444;SDS011;3764;48.126;11.594;2024-01-27T03:49:16;1.35;;;1.25;;
7444;SDS011;3764;48.126;11.594;2024-01-27T03:51:44;1.52;;;1.42;;
7444;SDS011;3764;48.126;11.594;2024-01-27T03:54:12;6.47;;;1.80;;
7444;SDS011;3764;48.126;11.594;2024-01-27T03:56:39;2.60;;;1.60;;
7444;SDS011;3764;48.126;11.594;2024-01-27T03:59:07;7.10;;;1.70;;
7444;SDS011;3764;48.126;11.594;2024-01-27T04:01:36;2.30;;;1.50;;
7444;SDS011;3764;48.126;11.594;2024-01-27T04:04:03;4.15;;;2.30;;
7444;SDS011;3764;48.126;11.594;2024-01-27T04:06:35;4.05;;;2.22;;
7444;SDS011;3764;48.126;11.594;2024-01-27T04:09:05;2.17;;;1.80;;
7444;SDS011;3764;48.126;11.594;2024-01-27T04:11:34;4.13;;;1.75;;
7444;SDS011;3764;48.126;11.594;2024-01-27T04:14:01;5.38;;;2.13;;
7444;SDS011;3764;48.126;11.594;2024-01-27T04:16:29;2.47;;;1.73;;
7444;SDS011;3764;48.126;11.594;2024-01-27T04:18:56;4.10;;;1.90;;
7444;SDS011;3764;48.126;11.594;2024-01-27T04:21:24;4.85;;;1.83;;
7444;SDS011;3764;48.126;11.594;2024-01-27T04:23:51;4.43;;;1.75;;
7444;SDS011;3764;48.126;11.594;2024-01-27T04:26:19;2.40;;;1.90;;
7444;SDS011;3764;48.126;11.594;2024-01-27T04:28:47;4.97;;;1.75;;
7444;SDS011;3764;48.126;11.594;2024-01-27T04:31:14;3.78;;;1.73;;
7444;SDS011;3764;48.126;11.594;2024-01-27T04:33:41;2.72;;;1.65;;
7444;SDS011;3764;48.126;11.594;2024-01-27T04:36:08;3.55;;;1.60;;
7444;SDS011;3764;48.126;11.594;2024-01-27T04:38:36;4.38;;;1.42;;
7444;SDS011;3764;48.126;11.594;2024-01-27T04:41:03;2.55;;;1.42;;
7444;SDS011;3764;48.126;11.594;2024-01-27T04:43:32;3.80;;;1.38;;
7444;SDS011;3764;48.126;11.594;2024-01-27T04:45:59;3.00;;;1.55;;
7444;SDS011;3764;48.126;11.594;2024-01-27T04:48:26;3.47;;;1.40;;
7444;SDS011;3764;48.126;11.594;2024-01-27T04:50:53;6.57;;;2.00;;
7444;SDS011;3764;48.126;11.594;2024-01-27T04:53:21;1.95;;;1.40;;
7444;SDS011;3764;48.126;11.594;2024-01-27T04:55:49;4.78;;;1.52;;
7444;SDS011;3764;48.126;11.594;2024-01-27T04:58:16;3.17;;;1.80;;
7444;SDS011;3764;48.126;11.594;2024-01-27T05:00:44;3.95;;;2.10;;
7444;SDS011;3764;48.126;11.594;2024-01-27T05:03:12;3.67;;;1.98;;
7444;SDS011;3764;48.126;11.594;2024-01-27T05:05:40;5.30;;;2.20;;
7444;SDS011;3764;48.126;11.594;2024-01-27T05:08:08;1.83;;;1.73;;
7444;SDS011;3764;48.126;11.594;2024-01-27T05:10:35;3.72;;;1.67;;
7444;SDS011;3764;48.126;11.594;2024-01-27T05:13:03;1.98;;;1.60;;
7444;SDS011;3764;48.126;11.594;2024-01-27T05:15:30;2.58;;;1.60;;
7444;SDS011;3764;48.126;11.594;2024-01-27T05:17:59;8.38;;;2.90;;
7444;SDS011;3764;48.126;11.594;2024-01-27T05:20:26;5.35;;;1.70;;
7444;SDS011;3764;48.126;11.594;2024-01-27T05:22:53;3.08;;;1.77;;
7444;SDS011;3764;48.126;11.594;2024-01-27T05:25:20;3.40;;;1.80;;
7444;SDS011;3764;48.126;11.594;2024-01-27T05:27:48;4.90;;;1.85;;
7444;SDS011;3764;48.126;11.594;2024-01-27T05:30:15;2.78;;;1.90;;
7444;SDS011;3764;48.126;11.594;2024-01-27T05:32:43;5.63;;;2.10;;
7444;SDS011;3764;48.126;11.594;2024-01-27T05:35:11;3.03;;;1.80;;
7444;SDS011;3764;48.126;11.594;2024-01-27T05:37:38;2.00;;;1.70;;
7444;SDS011;3764;48.126;11.594;2024-01-27T05:40:06;3.50;;;1.75;;
7444;SDS011;3764;48.126;11.594;2024-01-27T05:42:34;3.65;;;1.85;;
7444;SDS011;3764;48.126;11.594;2024-01-27T05:45:01;4.25;;;2.22;;
7444;SDS011;3764;48.126;11.594;2024-01-27T05:47:29;3.13;;;1.90;;
7444;SDS011;3764;48.126;11.594;2024-01-27T05:49:56;5.68;;;1.50;;
7444;SDS011;3764;48.126;11.594;2024-01-27T05:52:25;4.03;;;2.25;;
7444;SDS011;3764;48.126;11.594;2024-01-27T05:54:52;6.07;;;2.15;;
7444;SDS011;3764;48.126;11.594;2024-01-27T05:57:19;2.28;;;1.75;;
7444;SDS011;3764;48.126;11.594;2024-01-27T05:59:47;5.57;;;1.65;;
7444;SDS011;3764;48.126;11.594;2024-01-27T06:02:14;7.55;;;1.88;;
7444;SDS011;3764;48.126;11.594;2024-01-27T06:04:43;3.58;;;1.85;;
7444;SDS011;3764;48.126;11.594;2024-01-27T06:07:10;5.28;;;2.58;;
7444;SDS011;3764;48.126;11.594;2024-01-27T06:09:38;8.10;;;2.60;;
7444;SDS011;3764;48.126;11.594;2024-01-27T06:12:06;6.55;;;2.30;;
7444;SDS011;3764;48.126;11.594;2024-01-27T06:14:33;3.97;;;2.25;;
7444;SDS011;3764;48.126;11.594;2024-01-27T06:17:00;4.30;;;2.00;;
7444;SDS011;3764;48.126;11.594;2024-01-27T06:19:29;4.95;;;2.60;;
7444;SDS011;3764;48.126;11.594;2024-01-27T06:21:56;3.20;;;2.20;;
7444;SDS011;3764;48.126;11.594;2024-01-27T06:24:23;7.28;;;2.22;;
7444;SDS011;3764;48.126;11.594;2024-01-27T06:26:52;7.13;;;2.47;;
7444;SDS011;3764;48.126;11.594;2024-01-27T06:29:19;4.22;;;1.98;;
7444;SDS011;3764;48.126;11.594;2024-01-27T06:31:48;3.45;;;2.30;;
7444;SDS011;3764;48.126;11.594;2024-01-27T06:34:15;4.18;;;2.50;;
7444;SDS011;3764;48.126;11.594;2024-01-27T06:36:42;8.55;;;2.38;;
7444;SDS011;3764;48.126;11.594;2024-01-27T06:39:09;4.25;;;1.98;;
7444;SDS011;3764;48.126;11.594;2024-01-27T06:41:37;4.55;;;2.10;;
7444;SDS011;3764;48.126;11.594;2024-01-27T06:44:05;4.72;;;2.35;;
7444;SDS011;3764;48.126;11.594;2024-01-27T06:46:33;4.28;;;2.40;;
7444;SDS011;3764;48.126;11.594;2024-01-27T06:49:02;3.38;;;2.35;;
7444;SDS011;3764;48.126;11.594;2024-01-27T06:51:29;3.67;;;2.03;;
7444;SDS011;3764;48.126;11.594;2024-01-27T06:53:56;3.58;;;1.98;;
7444;SDS011;3764;48.126;11.594;2024-01-27T06:56:24;5.60;;;2.55;;
7444;SDS011;3764;48.126;11.594;2024-01-27T06:58:51;5.45;;;3.08;;
7444;SDS011;3764;48.126;11.594;2024-01-27T07:01:19;2.42;;;2.05;;
7444;SDS011;3764;48.126;11.594;2024-01-27T07:03:47;7.88;;;2.47;;
7444;SDS011;3764;48.126;11.594;2024-01-27T07:06:14;5.75;;;2.53;;
7444;SDS011;3764;48.126;11.594;2024-01-27T07:08:41;4.47;;;2.10;;
7444;SDS011;3764;48.126;11.594;2024-01-27T07:11:08;6.75;;;3.22;;
7444;SDS011;3764;48.126;11.594;2024-01-27T07:13:35;5.93;;;2.80;;
7444;SDS011;3764;48.126;11.594;2024-01-27T07:16:03;4.82;;;2.78;;
7444;SDS011;3764;48.126;11.594;2024-01-27T07:18:32;5.72;;;2.60;;
7444;SDS011;3764;48.126;11.594;2024-01-27T07:21:00;7.68;;;3.00;;
7444;SDS011;3764;48.126;11.594;2024-01-27T07:23:28;6.55;;;2.50;;
7444;SDS011;3764;48.126;11.594;2024-01-27T07:25:55;5.97;;;2.55;;
7444;SDS011;3764;48.126;11.594;2024-01-27T07:28:22;5.13;;;3.75;;
7444;SDS011;3764;48.126;11.594;2024-01-27T07:30:49;9.40;;;2.60;;
7444;SDS011;3764;48.126;11.594;2024-01-27T07:33:17;6.20;;;3.03;;
7444;SDS011;3764;48.126;11.594;2024-01-27T07:35:45;4.75;;;2.85;;
7444;SDS011;3764;48.126;11.594;2024-01-27T07:38:12;5.43;;;2.72;;
7444;SDS011;3764;48.126;11.594;2024-01-27T07:40:40;6.65;;;3.25;;
7444;SDS011;3764;48.126;11.594;2024-01-27T07:43:07;4.38;;;2.63;;
7444;SDS011;3764;48.126;11.594;2024-01-27T07:45:34;5.97;;;2.90;;
7444;SDS011;3764;48.126;11.594;2024-01-27T07:48:01;9.40;;;4.18;;
7444;SDS011;3764;48.126;11.594;2024-01-27T07:50:29;5.72;;;2.75;;
7444;SDS011;3764;48.126;11.594;2024-01-27T07:52:57;6.20;;;4.10;;
7444;SDS011;3764;48.126;11.594;2024-01-27T07:55:24;5.50;;;2.88;;
7444;SDS011;3764;48.126;11.594;2024-01-27T07:57:52;6.35;;;2.90;;
7444;SDS011;3764;48.126;11.594;2024-01-27T08:00:19;8.85;;;4.30;;
7444;SDS011;3764;48.126;11.594;2024-01-27T08:02:46;7.63;;;3.70;;
7444;SDS011;3764;48.126;11.594;2024-01-27T08:05:13;8.93;;;4.10;;
7444;SDS011;3764;48.126;11.594;2024-01-27T08:07:41;7.70;;;3.97;;
7444;SDS011;3764;48.126;11.594;2024-01-27T08:10:10;7.88;;;3.50;;
7444;SDS011;3764;48.126;11.594;2024-01-27T08:12:37;6.80;;;3.40;;
7444;SDS011;3764;48.126;11.594;2024-01-27T08:15:05;6.70;;;3.40;;
7444;SDS011;3764;48.126;11.594;2024-01-27T08:17:33;6.07;;;3.67;;
7444;SDS011;3764;48.126;11.594;2024-01-27T08:20:00;7.03;;;2.80;;
7444;SDS011;3764;48.126;11.594;2024-01-27T08:22:28;11.50;;;4.40;;
7444;SDS011;3764;48.126;11.594;2024-01-27T08:24:55;12.82;;;4.30;;
7444;SDS011;3764;48.126;11.594;2024-01-27T08:27:23;7.38;;;3.83;;
7444;SDS011;3764;48.126;11.594;2024-01-27T08:29:51;7.70;;;3.90;;
7444;SDS011;3764;48.126;11.594;2024-01-27T08:32:18;5.95;;;3.72;;
7444;SDS011;3764;48.126;11.594;2024-01-27T08:34:45;8.02;;;4.10;;
7444;SDS011;3764;48.126;11.594;2024-01-27T08:37:17;7.43;;;3.17;;
7444;SDS011;3764;48.126;11.594;2024-01-27T08:39:45;8.05;;;5.00;;
7444;SDS011;3764;48.126;11.594;2024-01-27T08:42:12;7.85;;;4.20;;
7444;SDS011;3764;48.126;11.594;2024-01-27T08:44:41;8.15;;;3.88;;
7444;SDS011;3764;48.126;11.594;2024-01-27T08:47:09;4.80;;;3.58;;
7444;SDS011;3764;48.126;11.594;2024-01-27T08:49:36;10.77;;;4.10;;
7444;SDS011;3764;48.126;11.594;2024-01-27T08:52:03;5.85;;;4.75;;
7444;SDS011;3764;48.126;11.594;2024-01-27T08:54:31;8.55;;;4.20;;
7444;SDS011;3764;48.126;11.594;2024-01-27T08:56:58;7.28;;;4.53;;
7444;SDS011;3764;48.126;11.594;2024-01-27T08:59:25;8.80;;;4.40;;
7444;SDS011;3764;48.126;11.594;2024-01-27T09:01:54;5.13;;;4.07;;
7444;SDS011;3764;48.126;11.594;2024-01-27T09:04:21;8.18;;;4.28;;
7444;SDS011;3764;48.126;11.594;2024-01-27T09:06:48;6.47;;;4.15;;
7444;SDS011;3764;48.126;11.594;2024-01-27T09:09:15;7.68;;;4.03;;
7444;SDS011;3764;48.126;11.594;2024-01-27T09:11:42;7.47;;;3.53;;
7444;SDS011;3764;48.126;11.594;2024-01-27T09:14:11;5.55;;;3.72;;
7444;SDS011;3764;48.126;11.594;2024-01-27T09:16:38;5.93;;;4.50;;
7444;SDS011;3764;48.126;11.594;2024-01-27T09:19:07;10.57;;;4.32;;
7444;SDS011;3764;48.126;11.594;2024-01-27T09:21:34;7.13;;;4.10;;
7444;SDS011;3764;48.126;11.594;2024-01-27T09:24:02;9.00;;;4.00;;
7444;SDS011;3764;48.126;11.594;2024-01-27T09:26:29;6.20;;;3.75;;
7444;SDS011;3764;48.126;11.594;2024-01-27T09:28:56;6.72;;;3.67;;
7444;SDS011;3764;48.126;11.594;2024-01-27T09:31:23;10.43;;;4.75;;
7444;SDS011;3764;48.126;11.594;2024-01-27T09:33:52;10.23;;;4.10;;
7444;SDS011;3764;48.126;11.594;2024-01-27T09:36:22;6.88;;;4.10;;
7444;SDS011;3764;48.126;11.594;2024-01-27T09:38:49;6.10;;;3.65;;
7444;SDS011;3764;48.126;11.594;2024-01-27T09:41:17;6.57;;;3.70;;
7444;SDS011;3764;48.126;11.594;2024-01-27T09:43:44;7.95;;;3.50;;
7444;SDS011;3764;48.126;11.594;2024-01-27T09:46:14;10.05;;;4.00;;
7444;SDS011;3764;48.126;11.594;2024-01-27T09:48:42;6.50;;;3.28;;
7444;SDS011;3764;48.126;11.594;2024-01-27T09:51:10;7.70;;;3.30;;
7444;SDS011;3764;48.126;11.594;2024-01-27T09:53:39;13.70;;;3.80;;
7444;SDS011;3764;48.126;11.594;2024-01-27T09:56:07;6.72;;;3.47;;
7444;SDS011;3764;48.126;11.594;2024-01-27T09:58:35;10.43;;;4.35;;
7444;SDS011;3764;48.126;11.594;2024-01-27T10:01:03;6.75;;;3.75;;
7444;SDS011;3764;48.126;11.594;2024-01-27T10:03:31;5.80;;;4.00;;
7444;SDS011;3764;48.126;11.594;2024-01-27T10:06:00;7.55;;;4.20;;
7444;SDS011;3764;48.126;11.594;2024-01-27T10:08:29;8.23;;;5.15;;
7444;SDS011;3764;48.126;11.594;2024-01-27T10:10:58;8.90;;;4.63;;
7444;SDS011;3764;48.126;11.594;2024-01-27T10:13:25;5.45;;;4.07;;
7444;SDS011;3764;48.126;11.594;2024-01-27T10:16:01;5.88;;;4.20;;
7444;SDS011;3764;48.126;11.594;2024-01-27T10:18:29;10.88;;;4.35;;
7444;SDS011;3764;48.126;11.594;2024-01-27T10:20:57;10.02;;;3.40;;
7444;SDS011;3764;48.126;11.594;2024-01-27T10:23:24;6.03;;;4.03;;
7444;SDS011;3764;48.126;11.594;2024-01-27T10:25:52;6.18;;;3.55;;
7444;SDS011;3764;48.126;11.594;2024-01-27T10:28:21;7.88;;;3.63;;
7444;SDS011;3764;48.126;11.594;2024-01-27T10:30:49;9.25;;;3.78;;
7444;SDS011;3764;48.126;11.594;2024-01-27T10:33:16;7.88;;;3.15;;
7444;SDS011;3764;48.126;11.594;2024-01-27T10:35:43;12.35;;;4.38;;
7444;SDS011;3764;48.126;11.594;2024-01-27T10:38:10;5.70;;;3.90;;
7444;SDS011;3764;48.126;11.594;2024-01-27T10:40:38;5.82;;;3.60;;
7444;SDS011;3764;48.126;11.594;2024-01-27T10:43:05;11.90;;;3.60;;
7444;SDS011;3764;48.126;11.594;2024-01-27T10:45:36;9.55;;;3.58;;
7444;SDS011;3764;48.126;11.594;2024-01-27T10:48:04;9.07;;;3.28;;
7444;SDS011;3764;48.126;11.594;2024-01-27T10:50:34;12.13;;;4.05;;
7444;SDS011;3764;48.126;11.594;2024-01-27T10:53:03;10.13;;;3.97;;
7444;SDS011;3764;48.126;11.594;2024-01-27T10:55:32;7.22;;;3.60;;
7444;SDS011;3764;48.126;11.594;2024-01-27T10:58:01;12.85;;;5.28;;
7444;SDS011;3764;48.126;11.594;2024-01-27T11:00:29;7.80;;;4.00;;
7444;SDS011;3764;48.126;11.594;2024-01-27T11:02:59;10.35;;;3.92;;
7444;SDS011;3764;48.126;11.594;2024-01-27T11:05:30;9.93;;;5.07;;
7444;SDS011;3764;48.126;11.594;2024-01-27T11:08:02;5.25;;;4.00;;
7444;SDS011;3764;48.126;11.594;2024-01-27T11:10:32;8.82;;;3.63;;
7444;SDS011;3764;48.126;11.594;2024-01-27T11:13:03;6.35;;;4.13;;
7444;SDS011;3764;48.126;11.594;2024-01-27T11:15:32;8.60;;;3.13;;
7444;SDS011;3764;48.126;11.594;2024-01-27T11:18:01;4.78;;;3.10;;
7444;SDS011;3764;48.126;11.594;2024-01-27T11:20:30;6.60;;;3.33;;
7444;SDS011;3764;48.126;11.594;2024-01-27T11:23:07;8.98;;;3.38;;
7444;SDS011;3764;48.126;11.594;2024-01-27T11:25:35;9.65;;;4.47;;
7444;SDS011;3764;48.126;11.594;2024-01-27T11:28:10;3.65;;;3.22;;
7444;SDS011;3764;48.126;11.594;2024-01-27T11:30:39;5.88;;;3.75;;
7444;SDS011;3764;48.126;11.594;2024-01-27T11:33:07;9.50;;;3.33;;
7444;SDS011;3764;48.126;11.594;2024-01-27T11:35:36;7.43;;;3.53;;
7444;SDS011;3764;48.126;11.594;2024-01-27T11:38:03;7.78;;;3.80;;
7444;SDS011;3764;48.126;11.594;2024-01-27T11:40:31;6.07;;;3.38;;
7444;SDS011;3764;48.126;11.594;2024-01-27T11:42:59;6.35;;;3.50;;
7444;SDS011;3764;48.126;11.594;2024-01-27T11:45:27;6.82;;;4.20;;
7444;SDS011;3764;48.126;11.594;2024-01-27T11:47:55;7.40;;;3.65;;
7444;SDS011;3764;48.126;11.594;2024-01-27T11:50:24;5.63;;;3.45;;
7444;SDS011;3764;48.126;11.594;2024-01-27T11:52:51;9.68;;;4.13;;
7444;SDS011;3764;48.126;11.594;2024-01-27T11:55:19;3.95;;;3.30;;
7444;SDS011;3764;48.126;11.594;2024-01-27T11:57:46;8.43;;;4.20;;
7444;SDS011;3764;48.126;11.594;2024-01-27T12:00:14;4.95;;;3.40;;
7444;SDS011;3764;48.126;11.594;2024-01-27T12:02:41;4.22;;;3.47;;
7444;SDS011;3764;48.126;11.594;2024-01-27T12:05:08;7.78;;;3.30;;
7444;SDS011;3764;48.126;11.594;2024-01-27T12:07:38;8.77;;;3.17;;
7444;SDS011;3764;48.126;11.594;2024-01-27T12:10:06;3.67;;;2.40;;
7444;SDS011;3764;48.126;11.594;2024-01-27T12:12:35;7.95;;;3.20;;
7444;SDS011;3764;48.126;11.594;2024-01-27T12:15:02;6.53;;;3.05;;
7444;SDS011;3764;48.126;11.594;2024-01-27T12:17:30;6.10;;;2.50;;
7444;SDS011;3764;48.126;11.594;2024-01-27T12:19:57;5.45;;;2.90;;
7444;SDS011;3764;48.126;11.594;2024-01-27T12:22:25;6.13;;;3.92;;
7444;SDS011;3764;48.126;11.594;2024-01-27T12:24:54;4.43;;;2.45;;
7444;SDS011;3764;48.126;11.594;2024-01-27T12:27:23;10.10;;;3.40;;
7444;SDS011;3764;48.126;11.594;2024-01-27T12:29:50;4.82;;;2.53;;
7444;SDS011;3764;48.126;11.594;2024-01-27T12:32:17;3.90;;;1.90;;
7444;SDS011;3764;48.126;11.594;2024-01-27T12:34:45;5.40;;;2.30;;
7444;SDS011;3764;48.126;11.594;2024-01-27T12:37:13;5.47;;;2.60;;
7444;SDS011;3764;48.126;11.594;2024-01-27T12:39:41;2.97;;;2.35;;
7444;SDS011;3764;48.126;11.594;2024-01-27T12:42:10;3.78;;;2.35;;
7444;SDS011;3764;48.126;11.594;2024-01-27T12:44:38;6.13;;;2.40;;
7444;SDS011;3764;48.126;11.594;2024-01-27T12:47:05;4.22;;;2.40;;
7444;SDS011;3764;48.126;11.594;2024-01-27T12:49:33;6.00;;;2.20;;
7444;SDS011;3764;48.126;11.594;2024-01-27T12:52:01;3.40;;;2.42;;
7444;SDS011;3764;48.126;11.594;2024-01-27T12:54:28;5.13;;;2.50;;
7444;SDS011;3764;48.126;11.594;2024-01-27T12:56:55;3.50;;;2.72;;
7444;SDS011;3764;48.126;11.594;2024-01-27T12:59:24;5.43;;;3.30;;
7444;SDS011;3764;48.126;11.594;2024-01-27T13:01:51;4.72;;;2.88;;
7444;SDS011;3764;48.126;11.594;2024-01-27T13:04:19;9.43;;;2.55;;
7444;SDS011;3764;48.126;11.594;2024-01-27T13:06:46;5.22;;;2.97;;
7444;SDS011;3764;48.126;11.594;2024-01-27T13:09:13;3.47;;;3.17;;
7444;SDS011;3764;48.126;11.594;2024-01-27T13:11:41;5.65;;;2.83;;
7444;SDS011;3764;48.126;11.594;2024-01-27T13:14:08;7.82;;;2.25;;
7444;SDS011;3764;48.126;11.594;2024-01-27T13:16:38;4.30;;;2.90;;
7444;SDS011;3764;48.126;11.594;2024-01-27T13:19:05;4.68;;;2.85;;
7444;SDS011;3764;48.126;11.594;2024-01-27T13:21:33;6.25;;;2.67;;
7444;SDS011;3764;48.126;11.594;2024-01-27T13:24:00;8.30;;;2.95;;
7444;SDS011;3764;48.126;11.594;2024-01-27T13:26:27;7.97;;;3.08;;
7444;SDS011;3764;48.126;11.594;2024-01-27T13:28:56;7.03;;;2.38;;
7444;SDS011;3764;48.126;11.594;2024-01-27T13:31:23;8.13;;;2.53;;
7444;SDS011;3764;48.126;11.594;2024-01-27T13:33:52;3.17;;;2.13;;
7444;SDS011;3764;48.126;11.594;2024-01-27T13:36:19;3.83;;;2.58;;
7444;SDS011;3764;48.126;11.594;2024-01-27T13:38:47;2.65;;;1.95;;
7444;SDS011;3764;48.126;11.594;2024-01-27T13:41:14;3.00;;;2.45;;
7444;SDS011;3764;48.126;11.594;2024-01-27T13:43:41;2.10;;;1.85;;
7444;SDS011;3764;48.126;11.594;2024-01-27T13:46:08;4.57;;;2.40;;
7444;SDS011;3764;48.126;11.594;2024-01-27T13:48:36;3.40;;;2.20;;
7444;SDS011;3764;48.126;11.594;2024-01-27T13:51:05;2.95;;;2.50;;
7444;SDS011;3764;48.126;11.594;2024-01-27T13:53:32;5.47;;;3.08;;
7444;SDS011;3764;48.126;11.594;2024-01-27T13:55:59;4.18;;;2.78;;
7444;SDS011;3764;48.126;11.594;2024-01-27T13:58:27;3.42;;;2.50;;
7444;SDS011;3764;48.126;11.594;2024-01-27T14:00:54;4.07;;;2.40;;
7444;SDS011;3764;48.126;11.594;2024-01-27T14:03:21;1.75;;;1.60;;
7444;SDS011;3764;48.126;11.594;2024-01-27T14:05:48;3.10;;;1.38;;
7444;SDS011;3764;48.126;11.594;2024-01-27T14:08:17;7.05;;;2.60;;
7444;SDS011;3764;48.126;11.594;2024-01-27T14:10:44;3.72;;;2.00;;
7444;SDS011;3764;48.126;11.594;2024-01-27T14:13:13;2.25;;;2.05;;
7444;SDS011;3764;48.126;11.594;2024-01-27T14:15:40;1.95;;;1.77;;
7444;SDS011;3764;48.126;11.594;2024-01-27T14:18:08;2.20;;;1.95;;
7444;SDS011;3764;48.126;11.594;2024-01-27T14:20:39;4.53;;;2.08;;
7444;SDS011;3764;48.126;11.594;2024-01-27T14:23:06;5.88;;;3.00;;
7444;SDS011;3764;48.126;11.594;2024-01-27T14:25:34;8.05;;;2.90;;
7444;SDS011;3764;48.126;11.594;2024-01-27T14:28:03;2.88;;;2.50;;
7444;SDS011;3764;48.126;11.594;2024-01-27T14:30:32;5.22;;;2.20;;
7444;SDS011;3764;48.126;11.594;2024-01-27T14:32:59;2.75;;;2.05;;
7444;SDS011;3764;48.126;11.594;2024-01-27T14:35:26;4.90;;;1.50;;
7444;SDS011;3764;48.126;11.594;2024-01-27T14:37:53;9.20;;;3.30;;
7444;SDS011;3764;48.126;11.594;2024-01-27T14:40:22;3.90;;;2.25;;
7444;SDS011;3764;48.126;11.594;2024-01-27T14:42:52;2.80;;;2.03;;
7444;SDS011;3764;48.126;11.594;2024-01-27T14:45:20;4.45;;;2.30;;
7444;SDS011;3764;48.126;11.594;2024-01-27T14:47:47;4.35;;;2.75;;
7444;SDS011;3764;48.126;11.594;2024-01-27T14:50:14;5.88;;;3.63;;
7444;SDS011;3764;48.126;11.594;2024-01-27T14:52:41;5.97;;;2.20;;
7444;SDS011;3764;48.126;11.594;2024-01-27T14:55:08;4.00;;;2.40;;
7444;SDS011;3764;48.126;11.594;2024-01-27T14:57:39;3.85;;;2.05;;
7444;SDS011;3764;48.126;11.594;2024-01-27T15:00:08;4.57;;;2.25;;
7444;SDS011;3764;48.126;11.594;2024-01-27T15:02:38;4.35;;;2.78;;